sensor_id;sensor_type;location;lat;lon;timestamp;P1;durP1;ratioP1;P2;durP2;ratioP2
10142;SDS011;5112;54.088;13.446;2023-05-10T00:00:09;4.70;;;3.20;;
10142;SDS011;5112;54.088;13.446;2023-05-10T00:10:12;4.67;;;3.90;;
10142;SDS011;5112;54.088;13.446;2023-05-10T00:20:15;5.10;;;3.40;;
10142;SDS011;5112;54.088;13.446;2023-05-10T00:30:17;3.93;;;3.40;;
10142;SDS011;5112;54.088;13.446;2023-05-10T00:40:20;4.07;;;3.57;;
10142;SDS011;5112;54.088;13.446;2023-05-10T00:50:21;4.07;;;3.33;;
10142;SDS011;5112;54.088;13.446;2023-05-10T01:00:25;4.40;;;3.70;;
10142;SDS011;5112;54.088;13.446;2023-05-10T01:10:27;4.90;;;3.97;;
10142;SDS011;5112;54.088;13.446;2023-05-10T01:20:32;6.87;;;4.07;;
10142;SDS011;5112;54.088;13.446;2023-05-10T01:30:51;3.93;;;3.63;;
10142;SDS011;5112;54.088;13.446;2023-05-10T01:41:18;4.77;;;3.63;;
10142;SDS011;5112;54.088;13.446;2023-05-10T01:51:27;4.63;;;4.00;;
10142;SDS011;5112;54.088;13.446;2023-05-10T02:01:38;5.90;;;4.27;;
10142;SDS011;5112;54.088;13.446;2023-05-10T02:11:41;4.90;;;4.27;;
10142;SDS011;5112;54.088;13.446;2023-05-10T02:21:46;7.77;;;4.53;;
10142;SDS011;5112;54.088;13.446;2023-05-10T02:31:48;6.87;;;4.27;;
10142;SDS011;5112;54.088;13.446;2023-05-10T02:41:53;4.67;;;4.27;;
10142;SDS011;5112;54.088;13.446;2023-05-10T02:51:58;4.83;;;4.33;;
10142;SDS011;5112;54.088;13.446;2023-05-10T03:02:03;6.57;;;4.10;;
10142;SDS011;5112;54.088;13.446;2023-05-10T03:12:07;5.87;;;4.20;;
10142;SDS011;5112;54.088;13.446;2023-05-10T03:22:31;7.13;;;4.50;;
10142;SDS011;5112;54.088;13.446;2023-05-10T03:32:37;5.67;;;4.63;;
10142;SDS011;5112;54.088;13.446;2023-05-10T03:42:40;4.93;;;4.53;;
10142;SDS011;5112;54.088;13.446;2023-05-10T03:52:41;4.93;;;4.53;;
10142;SDS011;5112;54.088;13.446;2023-05-10T04:02:44;4.77;;;4.37;;
10142;SDS011;5112;54.088;13.446;2023-05-10T04:12:46;8.03;;;5.10;;
10142;SDS011;5112;54.088;13.446;2023-05-10T04:22:49;4.90;;;4.40;;
10142;SDS011;5112;54.088;13.446;2023-05-10T04:32:51;5.37;;;4.87;;
10142;SDS011;5112;54.088;13.446;2023-05-10T04:42:54;5.67;;;5.00;;
10142;SDS011;5112;54.088;13.446;2023-05-10T04:52:55;6.20;;;4.50;;
10142;SDS011;5112;54.088;13.446;2023-05-10T05:02:58;7.63;;;4.60;;
10142;SDS011;5112;54.088;13.446;2023-05-10T05:13:00;5.50;;;4.53;;
10142;SDS011;5112;54.088;13.446;2023-05-10T05:23:03;4.37;;;3.97;;
10142;SDS011;5112;54.088;13.446;2023-05-10T05:33:05;4.90;;;4.40;;
10142;SDS011;5112;54.088;13.446;2023-05-10T05:43:08;4.30;;;3.90;;
10142;SDS011;5112;54.088;13.446;2023-05-10T05:53:09;4.47;;;4.00;;
10142;SDS011;5112;54.088;13.446;2023-05-10T06:03:12;6.60;;;4.57;;
10142;SDS011;5112;54.088;13.446;2023-05-10T06:13:14;7.03;;;4.37;;
10142;SDS011;5112;54.088;13.446;2023-05-10T06:23:17;5.07;;;4.30;;
10142;SDS011;5112;54.088;13.446;2023-05-10T06:33:19;6.37;;;4.60;;
10142;SDS011;5112;54.088;13.446;2023-05-10T06:43:22;6.03;;;4.90;;
10142;SDS011;5112;54.088;13.446;2023-05-10T06:53:24;4.93;;;4.40;;
10142;SDS011;5112;54.088;13.446;2023-05-10T07:03:27;4.47;;;4.00;;
10142;SDS011;5112;54.088;13.446;2023-05-10T07:13:29;5.70;;;4.20;;
10142;SDS011;5112;54.088;13.446;2023-05-10T07:23:33;6.70;;;4.40;;
10142;SDS011;5112;54.088;13.446;2023-05-10T07:33:35;5.83;;;3.93;;
10142;SDS011;5112;54.088;13.446;2023-05-10T07:43:38;4.43;;;3.97;;
10142;SDS011;5112;54.088;13.446;2023-05-10T07:53:39;5.30;;;4.20;;
10142;SDS011;5112;54.088;13.446;2023-05-10T08:03:43;4.57;;;3.83;;
10142;SDS011;5112;54.088;13.446;2023-05-10T08:13:44;4.80;;;4.30;;
10142;SDS011;5112;54.088;13.446;2023-05-10T08:23:48;4.77;;;3.80;;
10142;SDS011;5112;54.088;13.446;2023-05-10T08:33:49;4.10;;;3.70;;
10142;SDS011;5112;54.088;13.446;2023-05-10T08:43:54;4.27;;;3.40;;
10142;SDS011;5112;54.088;13.446;2023-05-10T08:53:55;7.90;;;4.23;;
10142;SDS011;5112;54.088;13.446;2023-05-10T09:03:59;3.70;;;3.40;;
10142;SDS011;5112;54.088;13.446;2023-05-10T09:14:01;5.83;;;3.10;;
10142;SDS011;5112;54.088;13.446;2023-05-10T09:24:05;3.67;;;3.23;;
10142;SDS011;5112;54.088;13.446;2023-05-10T09:34:07;3.40;;;3.10;;
10142;SDS011;5112;54.088;13.446;2023-05-10T09:44:10;5.20;;;3.00;;
10142;SDS011;5112;54.088;13.446;2023-05-10T09:54:13;5.03;;;2.90;;
10142;SDS011;5112;54.088;13.446;2023-05-10T10:04:17;6.30;;;3.20;;
10142;SDS011;5112;54.088;13.446;2023-05-10T10:14:21;3.60;;;3.03;;
10142;SDS011;5112;54.088;13.446;2023-05-10T10:24:25;4.27;;;3.10;;
10142;SDS011;5112;54.088;13.446;2023-05-10T10:34:27;3.40;;;3.03;;
10142;SDS011;5112;54.088;13.446;2023-05-10T10:44:37;5.80;;;3.07;;
10142;SDS011;5112;54.088;13.446;2023-05-10T10:54:39;6.30;;;2.90;;
10142;SDS011;5112;54.088;13.446;2023-05-10T11:04:43;2.57;;;2.37;;
10142;SDS011;5112;54.088;13.446;2023-05-10T11:14:49;3.63;;;2.63;;
10142;SDS011;5112;54.088;13.446;2023-05-10T11:24:57;2.50;;;2.23;;
10142;SDS011;5112;54.088;13.446;2023-05-10T11:34:59;4.33;;;2.67;;
10142;SDS011;5112;54.088;13.446;2023-05-10T11:45:02;4.57;;;2.53;;
10142;SDS011;5112;54.088;13.446;2023-05-10T11:55:04;4.37;;;2.70;;
10142;SDS011;5112;54.088;13.446;2023-05-10T12:05:08;4.97;;;2.70;;
10142;SDS011;5112;54.088;13.446;2023-05-10T12:15:11;4.83;;;3.00;;
10142;SDS011;5112;54.088;13.446;2023-05-10T12:25:14;3.77;;;2.67;;
10142;SDS011;5112;54.088;13.446;2023-05-10T12:35:16;3.37;;;2.37;;
10142;SDS011;5112;54.088;13.446;2023-05-10T12:45:22;3.30;;;3.00;;
10142;SDS011;5112;54.088;13.446;2023-05-10T12:55:23;3.53;;;2.73;;
10142;SDS011;5112;54.088;13.446;2023-05-10T13:05:27;9.13;;;3.23;;
10142;SDS011;5112;54.088;13.446;2023-05-10T13:15:28;5.53;;;2.50;;
10142;SDS011;5112;54.088;13.446;2023-05-10T13:25:31;2.63;;;2.43;;
10142;SDS011;5112;54.088;13.446;2023-05-10T13:35:34;4.17;;;3.50;;
10142;SDS011;5112;54.088;13.446;2023-05-10T13:45:37;3.27;;;2.97;;
10142;SDS011;5112;54.088;13.446;2023-05-10T13:55:38;3.13;;;2.53;;
10142;SDS011;5112;54.088;13.446;2023-05-10T14:05:41;3.83;;;2.57;;
10142;SDS011;5112;54.088;13.446;2023-05-10T14:15:44;2.87;;;2.67;;
10142;SDS011;5112;54.088;13.446;2023-05-10T14:25:47;3.37;;;3.07;;
10142;SDS011;5112;54.088;13.446;2023-05-10T14:35:49;3.10;;;2.57;;
10142;SDS011;5112;54.088;13.446;2023-05-10T14:45:52;4.63;;;3.30;;
10142;SDS011;5112;54.088;13.446;2023-05-10T14:55:54;4.87;;;2.80;;
10142;SDS011;5112;54.088;13.446;2023-05-10T15:05:57;2.87;;;2.67;;
10142;SDS011;5112;54.088;13.446;2023-05-10T15:15:58;3.27;;;2.97;;
10142;SDS011;5112;54.088;13.446;2023-05-10T15:26:02;3.47;;;2.90;;
10142;SDS011;5112;54.088;13.446;2023-05-10T15:36:04;3.37;;;3.07;;
10142;SDS011;5112;54.088;13.446;2023-05-10T15:46:07;2.83;;;2.63;;
10142;SDS011;5112;54.088;13.446;2023-05-10T15:56:09;3.40;;;3.10;;
10142;SDS011;5112;54.088;13.446;2023-05-10T16:06:12;6.53;;;3.13;;
10142;SDS011;5112;54.088;13.446;2023-05-10T16:16:14;3.93;;;3.03;;
10142;SDS011;5112;54.088;13.446;2023-05-10T16:26:17;3.60;;;3.30;;
10142;SDS011;5112;54.088;13.446;2023-05-10T16:36:18;3.07;;;2.77;;
10142;SDS011;5112;54.088;13.446;2023-05-10T17:05:25;4.13;;;2.77;;
10142;SDS011;5112;54.088;13.446;2023-05-10T17:15:27;4.60;;;3.03;;
10142;SDS011;5112;54.088;13.446;2023-05-10T17:25:30;5.33;;;2.73;;
10142;SDS011;5112;54.088;13.446;2023-05-10T17:49:31;3.00;;;2.80;;
10142;SDS011;5112;54.088;13.446;2023-05-10T17:59:33;2.80;;;2.60;;
10142;SDS011;5112;54.088;13.446;2023-05-10T18:09:36;3.10;;;2.90;;
10142;SDS011;5112;54.088;13.446;2023-05-10T18:19:38;3.63;;;2.90;;
10142;SDS011;5112;54.088;13.446;2023-05-10T18:29:41;2.77;;;2.57;;
10142;SDS011;5112;54.088;13.446;2023-05-10T18:39:43;3.67;;;2.93;;
10142;SDS011;5112;54.088;13.446;2023-05-10T18:49:46;5.13;;;3.50;;
10142;SDS011;5112;54.088;13.446;2023-05-10T18:59:47;3.50;;;3.20;;
10142;SDS011;5112;54.088;13.446;2023-05-10T19:09:50;3.87;;;3.53;;
10142;SDS011;5112;54.088;13.446;2023-05-10T19:19:52;8.03;;;5.83;;
10142;SDS011;5112;54.088;13.446;2023-05-10T19:29:55;4.50;;;3.93;;
10142;SDS011;5112;54.088;13.446;2023-05-10T19:39:57;5.60;;;4.40;;
10142;SDS011;5112;54.088;13.446;2023-05-10T19:50:00;5.03;;;3.90;;
10142;SDS011;5112;54.088;13.446;2023-05-10T20:00:02;5.07;;;3.67;;
10142;SDS011;5112;54.088;13.446;2023-05-10T20:10:06;7.00;;;4.00;;
10142;SDS011;5112;54.088;13.446;2023-05-10T20:20:09;4.03;;;3.67;;
10142;SDS011;5112;54.088;13.446;2023-05-10T20:30:12;4.03;;;3.53;;
10142;SDS011;5112;54.088;13.446;2023-05-10T20:40:14;5.13;;;3.90;;
10142;SDS011;5112;54.088;13.446;2023-05-10T20:50:17;4.70;;;3.47;;
10142;SDS011;5112;54.088;13.446;2023-05-10T21:00:19;4.57;;;3.57;;
10142;SDS011;5112;54.088;13.446;2023-05-10T21:10:22;4.20;;;3.77;;
10142;SDS011;5112;54.088;13.446;2023-05-10T21:20:27;3.83;;;3.40;;
10142;SDS011;5112;54.088;13.446;2023-05-10T21:30:31;4.03;;;3.63;;
10142;SDS011;5112;54.088;13.446;2023-05-10T21:40:33;3.90;;;3.50;;
10142;SDS011;5112;54.088;13.446;2023-05-10T21:50:36;4.83;;;3.70;;
10142;SDS011;5112;54.088;13.446;2023-05-10T22:00:37;3.87;;;3.57;;
10142;SDS011;5112;54.088;13.446;2023-05-10T22:10:40;6.83;;;4.43;;
10142;SDS011;5112;54.088;13.446;2023-05-10T22:20:43;4.37;;;3.97;;
10142;SDS011;5112;54.088;13.446;2023-05-10T22:30:46;6.30;;;4.37;;
10142;SDS011;5112;54.088;13.446;2023-05-10T22:40:48;4.27;;;3.87;;
10142;SDS011;5112;54.088;13.446;2023-05-10T22:50:51;4.20;;;3.80;;
10142;SDS011;5112;54.088;13.446;2023-05-10T23:00:53;5.03;;;4.53;;
10142;SDS011;5112;54.088;13.446;2023-05-10T23:10:56;6.63;;;4.07;;
10142;SDS011;5112;54.088;13.446;2023-05-10T23:20:58;5.93;;;4.50;;
10142;SDS011;5112;54.088;13.446;2023-05-10T23:31:01;4.60;;;4.20;;
10142;SDS011;5112;54.088;13.446;2023-05-10T23:41:03;5.10;;;4.60;;
10142;SDS011;5112;54.088;13.446;2023-05-10T23:51:06;4.80;;;4.40;;
